Time;durP1;ratioP1;P1;durP2;ratioP2;P2;SDS_P1;SDS_P2;PMS_P1;PMS_P2;Temp;Humidity;BMP_temperature;BMP_pressure;BME280_temperature;BME280_humidity;BME280_pressure;Samples;Min_cycle;Max_cycle;Signal;HPM_P1;HPM_P2
2022/06/20 00:00:40;;;;;;;26.90;10.40;;;21.10;40.20;;;;;;5073142;28;46432;-62
2022/06/20 00:03:11;;;;;;;28.63;10.63;;;21.00;40.50;;;;;;5070207;28;46372;-64
2022/06/20 00:05:37;;;;;;;27.87;11.30;;;20.80;40.80;;;;;;5072928;28;46366;-64
2022/06/20 00:08:04;;;;;;;39.57;11.63;;;20.70;41.30;;;;;;5074895;28;46338;-63
2022/06/20 00:10:30;;;;;;;29.43;10.63;;;20.60;41.40;;;;;;5074432;28;46604;-63
2022/06/20 00:12:56;;;;;;;24.37;10.83;;;20.60;41.60;;;;;;5072976;28;46495;-62
2022/06/20 00:15:26;;;;;;;22.57;10.17;;;20.50;41.70;;;;;;5071276;28;45720;-61
2022/06/20 00:17:53;;;;;;;35.30;10.43;;;20.60;41.80;;;;;;5069960;28;45977;-64
2022/06/20 00:20:19;;;;;;;27.60;9.60;;;20.70;41.70;;;;;;5071464;28;46578;-68
2022/06/20 00:22:44;;;;;;;30.87;10.50;;;20.70;41.40;;;;;;5072960;28;46489;-63
2022/06/20 00:25:10;;;;;;;36.63;10.87;;;20.80;41.20;;;;;;5073715;28;46393;-63
2022/06/20 00:27:37;;;;;;;28.70;10.70;;;20.70;41.10;;;;;;5071924;28;46485;-64
2022/06/20 00:30:03;;;;;;;30.97;11.50;;;20.60;41.40;;;;;;5071997;28;46489;-63
2022/06/20 00:32:29;;;;;;;30.87;10.93;;;20.50;41.60;;;;;;5071046;28;46476;-65
2022/06/20 00:34:55;;;;;;;24.30;10.70;;;20.40;41.90;;;;;;5072990;28;46350;-62
2022/06/20 00:37:21;;;;;;;32.93;11.40;;;20.40;42.20;;;;;;5071614;28;46382;-64
2022/06/20 00:39:49;;;;;;;30.53;9.73;;;20.40;42.20;;;;;;5076464;28;46321;-64
2022/06/20 00:42:16;;;;;;;31.33;11.73;;;20.40;42.00;;;;;;5074350;28;46934;-65
2022/06/20 00:44:46;;;;;;;22.03;11.00;;;20.50;41.70;;;;;;5073913;28;46450;-64
2022/06/20 00:47:20;;;;;;;26.03;9.70;;;20.50;41.50;;;;;;5072272;28;46362;-64
2022/06/20 00:49:56;;;;;;;27.03;10.17;;;20.60;42.60;;;;;;5069760;28;46565;-64
2022/06/20 00:52:37;;;;;;;23.90;9.73;;;20.60;41.00;;;;;;5073215;28;46657;-63
2022/06/20 00:55:24;;;;;;;31.87;10.93;;;20.70;40.60;;;;;;5073883;28;46397;-64
2022/06/20 00:57:55;;;;;;;32.10;10.40;;;20.80;40.40;;;;;;5070993;28;46789;-63
2022/06/20 01:00:26;;;;;;;24.53;10.60;;;20.80;39.90;;;;;;5076535;28;46415;-63
2022/06/20 01:03:14;;;;;;;31.93;10.00;;;20.80;39.80;;;;;;5072449;28;46460;-63
2022/06/20 01:05:53;;;;;;;31.90;10.90;;;20.80;39.70;;;;;;5071391;27;46582;-63
2022/06/20 01:08:28;;;;;;;20.80;11.00;;;20.80;39.30;;;;;;5072409;28;46239;-65
2022/06/20 01:11:12;;;;;;;23.53;10.17;;;20.80;39.30;;;;;;5071414;28;46464;-65
2022/06/20 01:13:39;;;;;;;25.77;9.47;;;20.70;39.70;;;;;;5075178;28;47003;-64
2022/06/20 01:16:31;;;;;;;36.80;9.93;;;20.60;40.00;;;;;;5068861;28;46476;-63
2022/06/20 01:19:00;;;;;;;31.50;10.40;;;20.50;40.60;;;;;;5073788;28;46441;-63
2022/06/20 01:21:32;;;;;;;28.37;10.27;;;20.50;40.30;;;;;;5067230;28;46450;-62
2022/06/20 01:24:31;;;;;;;28.30;9.87;;;20.50;40.20;;;;;;5074564;28;48232;-62
2022/06/20 01:27:09;;;;;;;31.00;11.03;;;20.60;40.40;;;;;;5070187;28;46447;-62
2022/06/20 01:29:34;;;;;;;24.93;10.60;;;20.60;40.20;;;;;;5070406;28;46368;-64
2022/06/20 01:32:01;;;;;;;22.30;11.50;;;20.60;39.90;;;;;;5069315;28;46314;-65
2022/06/20 01:34:27;;;;;;;32.13;10.80;;;20.50;40.10;;;;;;5077862;28;46360;-62
2022/06/20 01:39:41;;;;;;;32.20;11.40;;;20.40;40.60;;;;;;5069228;28;46301;-64
2022/06/20 01:42:21;;;;;;;32.03;10.70;;;20.40;40.60;;;;;;5073040;28;46690;-63
2022/06/20 01:45:05;;;;;;;36.07;11.07;;;20.40;40.70;;;;;;5070831;28;46384;-64
2022/06/20 01:47:31;;;;;;;26.90;10.90;;;20.30;40.90;;;;;;5068814;28;45807;-62
2022/06/20 01:50:02;;;;;;;25.47;10.37;;;20.30;40.60;;;;;;5069216;28;46456;-62
2022/06/20 01:52:31;;;;;;;24.93;10.13;;;20.30;40.90;;;;;;5067556;28;46415;-62
2022/06/20 01:55:06;;;;;;;33.27;10.43;;;20.30;41.00;;;;;;5071486;28;47410;-64
2022/06/20 01:57:33;;;;;;;24.97;10.67;;;20.30;40.90;;;;;;5071434;28;45775;-63
2022/06/20 02:00:19;;;;;;;26.50;9.93;;;20.40;40.80;;;;;;5069498;28;46416;-64
2022/06/20 02:02:51;;;;;;;23.00;9.90;;;20.40;41.00;;;;;;5067326;28;46504;-65
2022/06/20 02:05:22;;;;;;;26.60;9.97;;;20.40;40.70;;;;;;5066461;28;47193;-64
2022/06/20 02:07:48;;;;;;;31.60;10.90;;;20.40;40.50;;;;;;5064091;28;46381;-62
2022/06/20 02:10:19;;;;;;;22.83;10.80;;;20.50;40.30;;;;;;5065766;28;46480;-64
2022/06/20 02:12:47;;;;;;;29.20;10.20;;;20.70;40.00;;;;;;5067042;28;46505;-65
2022/06/20 02:15:18;;;;;;;26.70;11.10;;;20.70;39.50;;;;;;5068196;28;46348;-63
2022/06/20 02:17:46;;;;;;;28.73;10.27;;;20.80;39.20;;;;;;5066370;28;46345;-63
2022/06/20 02:20:18;;;;;;;29.40;10.50;;;20.90;38.90;;;;;;5068759;28;45892;-64
2022/06/20 02:22:46;;;;;;;25.83;9.40;;;21.00;38.70;;;;;;5069011;28;46372;-65
2022/06/20 02:25:22;;;;;;;29.43;9.20;;;21.10;38.40;;;;;;5066443;27;46498;-62
2022/06/20 02:27:56;;;;;;;28.03;10.10;;;21.10;38.30;;;;;;5068519;28;46420;-64
2022/06/20 02:30:22;;;;;;;19.37;9.80;;;21.20;38.10;;;;;;5067311;28;46438;-63
2022/06/20 02:32:55;;;;;;;21.30;9.30;;;21.30;37.80;;;;;;5070073;28;46430;-62
2022/06/20 02:35:22;;;;;;;21.47;9.20;;;21.30;37.60;;;;;;5071376;28;47281;-65
2022/06/20 02:37:48;;;;;;;27.00;9.50;;;21.40;37.30;;;;;;5067891;28;46378;-63
2022/06/20 02:40:17;;;;;;;30.53;10.87;;;21.40;37.20;;;;;;5071623;28;46389;-62
2022/06/20 02:42:51;;;;;;;31.23;10.20;;;21.40;37.10;;;;;;5071173;28;46598;-62
2022/06/20 02:45:18;;;;;;;29.87;9.93;;;21.40;37.30;;;;;;5069485;28;46437;-65
2022/06/20 02:47:54;;;;;;;27.83;10.10;;;21.30;37.30;;;;;;5070121;28;46496;-63
2022/06/20 02:50:26;;;;;;;24.53;9.70;;;21.30;37.40;;;;;;5067591;28;46394;-62
2022/06/20 02:52:58;;;;;;;32.60;9.67;;;21.30;37.30;;;;;;5068715;28;46423;-64
2022/06/20 02:55:24;;;;;;;22.60;9.50;;;21.30;37.20;;;;;;5066647;28;46501;-65
2022/06/20 02:57:57;;;;;;;28.10;9.43;;;21.30;37.20;;;;;;5069429;28;46423;-66
2022/06/20 03:00:28;;;;;;;22.23;8.43;;;21.30;37.30;;;;;;5069859;28;46398;-63
2022/06/20 03:03:04;;;;;;;23.23;8.63;;;21.20;37.50;;;;;;5070128;28;46566;-63
2022/06/20 03:05:29;;;;;;;25.93;9.33;;;21.20;37.70;;;;;;5069830;28;46368;-62
2022/06/20 03:07:55;;;;;;;32.20;9.90;;;21.10;37.70;;;;;;5070772;28;46391;-66
2022/06/20 03:10:45;;;;;;;24.77;8.97;;;21.10;38.00;;;;;;5066338;28;45859;-64
2022/06/20 03:13:12;;;;;;;25.73;9.70;;;21.00;38.10;;;;;;5071256;28;46345;-62
2022/06/20 03:15:39;;;;;;;23.23;9.90;;;21.00;38.10;;;;;;5070070;28;46414;-64
2022/06/20 03:18:06;;;;;;;26.93;9.80;;;20.90;38.10;;;;;;5068274;28;46350;-64
2022/06/20 03:20:33;;;;;;;22.60;9.23;;;20.90;38.20;;;;;;5071411;28;45940;-65
2022/06/20 03:23:25;;;;;;;28.13;10.23;;;20.90;38.30;;;;;;5067472;28;46532;-63
2022/06/20 03:25:52;;;;;;;25.67;9.80;;;20.90;38.30;;;;;;5071538;28;47314;-62
2022/06/20 03:28:20;;;;;;;28.53;10.37;;;20.90;38.00;;;;;;5068830;28;45865;-63
2022/06/20 03:30:46;;;;;;;31.30;9.93;;;20.90;37.90;;;;;;5072044;27;46491;-62
2022/06/20 03:33:16;;;;;;;32.50;9.53;;;21.00;37.80;;;;;;5073455;28;46309;-62
2022/06/20 03:35:51;;;;;;;24.93;9.80;;;21.00;37.60;;;;;;5072525;28;46374;-65
2022/06/20 03:38:17;;;;;;;28.83;9.53;;;21.10;37.50;;;;;;5071701;28;46405;-66
2022/06/20 03:40:43;;;;;;;28.13;10.10;;;21.10;37.20;;;;;;5071415;28;45834;-64
2022/06/20 03:43:13;;;;;;;38.97;10.33;;;21.20;37.30;;;;;;5071585;28;46544;-62
2022/06/20 03:45:43;;;;;;;29.40;9.93;;;21.30;36.80;;;;;;5070696;28;47283;-63
2022/06/20 03:48:16;;;;;;;31.67;10.33;;;21.20;36.60;;;;;;5070770;28;46359;-65
2022/06/20 03:51:21;;;;;;;23.50;10.10;;;21.30;36.50;;;;;;5072385;28;46577;-61
2022/06/20 03:54:18;;;;;;;29.90;10.47;;;21.30;36.80;;;;;;5046369;28;46651;-65
2022/06/20 03:57:12;;;;;;;28.10;9.83;;;21.40;36.60;;;;;;5071380;28;46377;-64
2022/06/20 04:00:06;;;;;;;29.50;9.93;;;21.50;37.40;;;;;;5069242;28;46476;-63
2022/06/20 04:02:42;;;;;;;24.20;9.13;;;21.50;36.10;;;;;;5053577;27;46494;-63
2022/06/20 04:05:10;;;;;;;24.00;9.37;;;21.60;35.60;;;;;;5071550;28;46333;-62
2022/06/20 04:08:03;;;;;;;24.30;9.03;;;21.70;35.70;;;;;;5072397;28;47360;-63
2022/06/20 04:13:32;;;;;;;24.13;8.63;;;22.00;35.90;;;;;;5069426;28;46360;-64
2022/06/20 04:16:06;;;;;;;22.23;8.80;;;22.20;36.00;;;;;;5073280;28;46523;-66
2022/06/20 04:18:48;;;;;;;24.90;10.00;;;22.40;35.00;;;;;;5066622;28;47116;-66
2022/06/20 04:21:37;;;;;;;19.00;8.27;;;22.70;34.30;;;;;;5070956;28;46419;-67
2022/06/20 04:24:17;;;;;;;18.37;8.73;;;23.00;33.60;;;;;;5069671;28;46435;-63
2022/06/20 04:26:53;;;;;;;26.10;8.23;;;23.20;33.20;;;;;;5071901;28;46319;-63
2022/06/20 04:29:46;;;;;;;24.13;9.47;;;23.20;32.80;;;;;;5070525;28;46473;-62
2022/06/20 04:32:32;;;;;;;23.73;7.67;;;23.30;32.60;;;;;;5065795;28;46384;-62
2022/06/20 04:35:23;;;;;;;21.70;8.17;;;23.30;32.60;;;;;;5066968;28;46323;-63
2022/06/20 04:37:51;;;;;;;18.23;8.80;;;23.20;32.80;;;;;;5067807;28;46370;-64
2022/06/20 04:40:28;;;;;;;22.57;8.73;;;23.10;33.00;;;;;;5072904;27;46341;-62
2022/06/20 04:43:02;;;;;;;17.83;9.10;;;23.00;33.30;;;;;;5068923;28;46373;-63
2022/06/20 04:46:01;;;;;;;25.83;8.90;;;23.00;33.60;;;;;;5075097;28;46356;-64
2022/06/20 04:48:27;;;;;;;29.93;8.47;;;23.00;33.50;;;;;;5071930;28;46669;-63
2022/06/20 04:51:00;;;;;;;16.03;8.03;;;23.10;33.30;;;;;;5075846;28;46728;-62
2022/06/20 04:53:31;;;;;;;28.17;9.03;;;23.20;33.20;;;;;;5068915;28;46368;-63
2022/06/20 04:56:01;;;;;;;26.80;8.27;;;23.30;33.10;;;;;;5068686;28;46475;-63
2022/06/20 04:58:39;;;;;;;30.73;8.10;;;23.40;33.10;;;;;;5070720;28;46536;-64
2022/06/20 05:01:07;;;;;;;35.43;8.30;;;23.80;32.30;;;;;;5065636;28;45947;-64
2022/06/20 05:03:39;;;;;;;20.07;8.23;;;24.80;30.90;;;;;;5070307;28;46287;-67
2022/06/20 05:06:09;;;;;;;22.53;8.90;;;25.80;29.10;;;;;;5069754;28;46446;-65
2022/06/20 05:08:39;;;;;;;28.67;7.83;;;26.60;27.10;;;;;;5069075;28;46314;-62
2022/06/20 05:11:11;;;;;;;26.17;7.63;;;27.00;25.70;;;;;;5071761;28;47123;-62
2022/06/20 05:13:51;;;;;;;18.07;6.97;;;27.50;24.80;;;;;;5074629;28;46529;-62
2022/06/20 05:16:27;;;;;;;15.87;7.37;;;28.10;23.30;;;;;;5074853;28;46417;-65
2022/06/20 05:18:57;;;;;;;16.40;7.53;;;28.70;22.30;;;;;;5072352;28;46519;-65
2022/06/20 05:21:29;;;;;;;13.33;6.47;;;29.40;20.80;;;;;;5072110;28;46535;-64
2022/06/20 05:23:59;;;;;;;14.70;7.73;;;29.80;19.30;;;;;;5073072;28;46365;-65
2022/06/20 05:26:29;;;;;;;19.00;7.77;;;30.10;18.40;;;;;;5071481;28;46428;-64
2022/06/20 05:28:58;;;;;;;15.47;7.30;;;30.40;17.80;;;;;;5072252;28;46577;-62
2022/06/20 05:31:34;;;;;;;17.00;7.43;;;30.70;17.90;;;;;;5072333;28;46982;-64
2022/06/20 05:34:20;;;;;;;20.97;8.20;;;30.70;16.50;;;;;;5068685;28;46393;-63
2022/06/20 05:36:56;;;;;;;16.40;6.70;;;31.20;15.40;;;;;;5074369;28;46520;-61
2022/06/20 05:39:31;;;;;;;16.40;7.20;;;31.60;14.80;;;;;;5068837;28;46314;-63
2022/06/20 05:41:58;;;;;;;19.20;6.43;;;32.40;14.10;;;;;;5073028;28;47322;-63
2022/06/20 05:44:23;;;;;;;18.93;7.10;;;32.50;13.50;;;;;;5066773;28;46830;-62
2022/06/20 05:47:08;;;;;;;16.50;7.10;;;32.60;13.30;;;;;;5069976;28;46388;-62
2022/06/20 05:49:40;;;;;;;18.90;6.53;;;33.00;12.90;;;;;;5071556;28;46330;-62
2022/06/20 05:52:08;;;;;;;13.43;6.50;;;33.10;12.50;;;;;;5067992;28;46237;-64
2022/06/20 05:54:40;;;;;;;20.83;6.23;;;33.00;12.70;;;;;;5074848;28;46399;-64
2022/06/20 05:57:16;;;;;;;15.93;6.53;;;32.20;14.00;;;;;;5065658;28;46409;-63
2022/06/20 05:59:44;;;;;;;12.80;6.40;;;31.30;15.70;;;;;;5072161;28;45823;-62
2022/06/20 06:02:18;;;;;;;12.60;6.73;;;30.70;17.00;;;;;;5067545;28;46252;-66
2022/06/20 06:04:52;;;;;;;19.27;7.27;;;30.40;17.70;;;;;;5070744;28;46462;-66
2022/06/20 06:07:25;;;;;;;12.73;7.07;;;30.40;17.80;;;;;;5068448;28;46454;-63
2022/06/20 06:09:58;;;;;;;22.17;6.97;;;30.40;17.80;;;;;;5066662;28;46348;-64
2022/06/20 06:12:37;;;;;;;16.97;7.50;;;30.30;17.70;;;;;;5067730;28;47236;-64
2022/06/20 06:15:18;;;;;;;16.23;7.10;;;30.10;17.70;;;;;;5069123;28;46399;-63
2022/06/20 06:17:49;;;;;;;22.63;7.40;;;30.10;17.60;;;;;;5067460;28;46323;-61
2022/06/20 06:20:24;;;;;;;15.23;6.70;;;29.90;17.50;;;;;;5068649;28;46372;-64
2022/06/20 06:22:53;;;;;;;22.03;8.20;;;29.90;17.50;;;;;;5067759;28;47218;-63
2022/06/20 06:25:31;;;;;;;16.47;7.53;;;29.90;17.50;;;;;;5065834;28;46434;-64
2022/06/20 06:28:18;;;;;;;23.30;7.60;;;29.60;17.30;;;;;;5065235;28;46350;-64
2022/06/20 06:31:04;;;;;;;16.63;7.30;;;29.40;18.10;;;;;;5072743;28;45842;-62
2022/06/20 06:33:43;;;;;;;24.77;7.07;;;29.50;18.10;;;;;;5067082;28;46509;-62
2022/06/20 06:36:36;;;;;;;18.43;7.30;;;29.50;17.90;;;;;;5064997;28;46393;-63
2022/06/20 06:39:23;;;;;;;28.80;6.83;;;29.30;18.30;;;;;;5066295;28;46426;-63
2022/06/20 06:41:55;;;;;;;18.00;6.80;;;29.40;17.90;;;;;;5066849;28;46416;-64
2022/06/20 06:44:33;;;;;;;14.87;6.53;;;29.30;17.80;;;;;;5068281;28;46424;-63
2022/06/20 06:46:59;;;;;;;17.33;7.10;;;29.20;17.90;;;;;;5065962;28;46406;-65
2022/06/20 06:49:34;;;;;;;19.50;6.90;;;29.10;17.40;;;;;;5066753;28;46516;-63
2022/06/20 06:52:13;;;;;;;21.50;6.70;;;29.00;17.80;;;;;;5067551;28;46610;-61
2022/06/20 06:54:42;;;;;;;22.73;7.73;;;29.00;18.00;;;;;;5067302;28;46422;-63
2022/06/20 06:57:32;;;;;;;17.90;7.33;;;29.00;18.00;;;;;;5063898;28;46752;-62
2022/06/20 07:00:04;;;;;;;13.67;6.63;;;29.00;18.20;;;;;;5069598;28;46440;-63
2022/06/20 07:02:35;;;;;;;17.53;6.50;;;29.10;18.20;;;;;;5068424;28;45872;-62
2022/06/20 07:05:15;;;;;;;24.97;6.57;;;29.00;18.00;;;;;;5070582;28;47097;-63
2022/06/20 07:07:44;;;;;;;14.37;6.63;;;28.90;18.30;;;;;;5068968;28;45781;-63
2022/06/20 07:10:21;;;;;;;24.87;6.20;;;29.00;18.30;;;;;;5071358;28;46452;-65
2022/06/20 07:12:51;;;;;;;19.30;7.43;;;29.10;17.80;;;;;;5071054;28;46389;-61
2022/06/20 07:15:22;;;;;;;13.20;6.73;;;29.00;18.10;;;;;;5068997;27;46711;-62
2022/06/20 07:18:01;;;;;;;18.23;6.63;;;29.10;17.10;;;;;;5068202;28;46493;-62
2022/06/20 07:20:39;;;;;;;21.57;7.10;;;29.00;17.50;;;;;;5070396;28;46572;-63
2022/06/20 07:23:09;;;;;;;21.03;6.13;;;28.80;17.20;;;;;;5068573;28;46398;-63
2022/06/20 07:25:40;;;;;;;25.03;6.00;;;28.70;17.50;;;;;;5069893;28;47118;-64
2022/06/20 07:28:50;;;;;;;19.00;6.47;;;28.80;18.30;;;;;;5065066;28;46723;-65
2022/06/20 07:31:45;;;;;;;15.87;6.00;;;28.80;18.20;;;;;;5035501;28;45785;-64
2022/06/20 07:34:20;;;;;;;28.53;6.90;;;29.00;18.30;;;;;;5032569;28;46595;-65
2022/06/20 07:36:55;;;;;;;17.40;5.80;;;29.10;17.10;;;;;;5058858;28;47224;-61
2022/06/20 07:39:47;;;;;;;13.50;6.00;;;29.20;17.10;;;;;;5066321;28;46342;-63
2022/06/20 07:42:30;;;;;;;15.80;6.20;;;29.30;17.20;;;;;;5069797;28;46417;-64
2022/06/20 07:45:01;;;;;;;22.83;6.37;;;29.30;17.20;;;;;;5067472;28;46699;-65
2022/06/20 07:47:31;;;;;;;27.97;5.43;;;29.40;17.20;;;;;;5069036;28;46448;-65
2022/06/20 07:50:03;;;;;;;12.80;5.47;;;29.50;17.30;;;;;;5067231;28;46407;-63
2022/06/20 07:52:38;;;;;;;19.80;6.00;;;29.50;16.60;;;;;;5072407;28;46661;-65
2022/06/20 07:55:26;;;;;;;18.47;5.90;;;29.50;16.60;;;;;;5067174;28;46418;-62
2022/06/20 07:57:58;;;;;;;14.03;5.93;;;29.50;15.80;;;;;;5067530;28;47216;-62
2022/06/20 08:00:31;;;;;;;16.00;6.30;;;29.50;16.10;;;;;;5066012;28;46412;-62
2022/06/20 08:03:07;;;;;;;18.47;5.70;;;29.60;16.50;;;;;;5067823;28;46298;-63
2022/06/20 08:05:37;;;;;;;13.90;5.20;;;29.60;15.90;;;;;;5070744;28;46547;-65
2022/06/20 08:08:32;;;;;;;17.10;5.50;;;29.80;15.70;;;;;;5066663;28;47460;-63
2022/06/20 08:11:08;;;;;;;19.13;5.40;;;29.70;15.30;;;;;;5068524;28;46465;-62
2022/06/20 08:13:48;;;;;;;16.83;4.70;;;29.90;15.20;;;;;;5067378;28;46516;-64
2022/06/20 08:16:22;;;;;;;18.20;4.93;;;29.90;14.30;;;;;;5070181;27;46432;-65
2022/06/20 08:18:48;;;;;;;19.10;5.93;;;29.60;14.70;;;;;;5074756;28;46277;-62
2022/06/20 08:21:22;;;;;;;10.33;4.20;;;29.70;15.10;;;;;;5068129;28;46560;-64
2022/06/20 08:24:15;;;;;;;29.00;4.80;;;30.00;13.90;;;;;;5076430;28;46371;-62
2022/06/20 08:26:52;;;;;;;20.37;4.67;;;30.00;13.70;;;;;;5069528;28;46683;-63
2022/06/20 08:29:30;;;;;;;15.60;5.40;;;30.20;13.60;;;;;;5072583;28;46577;-66
2022/06/20 08:32:03;;;;;;;26.23;5.07;;;30.00;12.90;;;;;;5069031;28;46358;-65
2022/06/20 08:34:37;;;;;;;17.13;4.77;;;30.20;12.60;;;;;;5070882;28;46822;-64
2022/06/20 08:37:11;;;;;;;11.20;4.40;;;30.30;13.10;;;;;;5069982;28;46444;-61
2022/06/20 08:39:59;;;;;;;16.60;4.30;;;30.50;12.70;;;;;;5070154;28;46709;-63
2022/06/20 08:42:47;;;;;;;10.40;4.40;;;30.60;12.90;;;;;;5069631;28;46417;-63
2022/06/20 08:45:36;;;;;;;17.60;4.93;;;30.40;12.40;;;;;;5070183;28;46482;-67
2022/06/20 08:48:13;;;;;;;19.30;4.60;;;30.30;12.30;;;;;;5075408;28;46686;-64
2022/06/20 08:51:01;;;;;;;15.07;4.60;;;30.40;12.50;;;;;;5068450;28;47071;-64
2022/06/20 08:53:29;;;;;;;15.80;4.67;;;30.50;12.90;;;;;;5066357;28;46532;-65
2022/06/20 08:56:19;;;;;;;11.43;4.20;;;30.20;12.70;;;;;;5071156;28;46418;-65
2022/06/20 08:59:15;;;;;;;11.20;3.93;;;29.60;12.70;;;;;;5071057;28;46456;-62
2022/06/20 09:01:47;;;;;;;10.83;4.40;;;29.40;13.80;;;;;;5068157;28;46554;-63
2022/06/20 09:04:38;;;;;;;10.90;4.03;;;29.40;13.90;;;;;;5069871;28;45784;-63
2022/06/20 09:07:25;;;;;;;9.33;4.40;;;29.40;13.90;;;;;;5070093;28;46688;-65
2022/06/20 09:10:23;;;;;;;10.40;5.03;;;29.30;13.90;;;;;;5071382;28;46414;-62
2022/06/20 09:12:54;;;;;;;12.53;4.33;;;29.40;13.50;;;;;;5067920;28;47326;-65
2022/06/20 09:15:48;;;;;;;16.60;4.20;;;29.50;13.50;;;;;;5067865;28;46689;-63
2022/06/20 09:18:30;;;;;;;15.93;4.80;;;29.60;13.30;;;;;;5069987;28;46547;-63
2022/06/20 09:21:05;;;;;;;13.87;4.23;;;29.80;13.50;;;;;;5068267;27;46503;-63
2022/06/20 09:24:15;;;;;;;10.53;4.03;;;29.90;12.90;;;;;;5070490;28;46440;-64
2022/06/20 09:26:47;;;;;;;12.90;4.20;;;29.90;12.90;;;;;;5068098;28;46406;-64
2022/06/20 09:29:44;;;;;;;11.67;4.40;;;29.70;12.90;;;;;;5068906;28;46469;-64
2022/06/20 09:32:33;;;;;;;12.93;4.33;;;29.50;12.90;;;;;;5067869;27;46502;-66
2022/06/20 09:35:12;;;;;;;10.93;4.30;;;29.40;13.50;;;;;;5072317;28;46979;-65
2022/06/20 09:38:09;;;;;;;14.63;4.43;;;29.40;13.70;;;;;;5065613;28;46460;-65
2022/06/20 09:40:54;;;;;;;17.63;4.43;;;30.20;13.80;;;;;;5065856;28;46556;-63
2022/06/20 09:43:36;;;;;;;13.50;4.33;;;30.80;12.40;;;;;;5069958;28;46695;-64
2022/06/20 09:46:07;;;;;;;45.43;5.60;;;31.20;11.30;;;;;;5068878;28;46743;-65
2022/06/20 09:48:44;;;;;;;16.90;4.30;;;31.80;11.20;;;;;;5068753;28;46494;-67
2022/06/20 09:51:28;;;;;;;14.53;4.00;;;32.10;10.10;;;;;;5063734;28;46525;-63
2022/06/20 09:54:21;;;;;;;15.67;4.00;;;31.70;10.10;;;;;;5070820;28;46904;-62
2022/06/20 09:57:07;;;;;;;15.50;4.00;;;31.50;10.50;;;;;;5065415;28;47441;-63
2022/06/20 10:00:22;;;;;;;15.17;4.30;;;31.90;10.40;;;;;;5048826;28;46682;-62
2022/06/20 10:02:54;;;;;;;11.67;4.70;;;31.80;10.50;;;;;;5006260;28;46363;-63
2022/06/20 10:05:37;;;;;;;8.27;3.77;;;31.60;10.50;;;;;;5006959;28;46524;-63
2022/06/20 10:08:21;;;;;;;9.20;4.00;;;31.20;10.90;;;;;;5048712;28;47530;-64
2022/06/20 10:11:12;;;;;;;5.60;3.83;;;31.00;11.70;;;;;;5071471;28;46377;-66
2022/06/20 10:13:59;;;;;;;9.63;4.50;;;31.40;11.30;;;;;;5072262;28;46439;-66
2022/06/20 10:16:43;;;;;;;18.03;4.80;;;31.50;11.20;;;;;;5071480;28;46515;-67
2022/06/20 10:19:27;;;;;;;10.80;3.70;;;31.80;9.90;;;;;;5071289;28;46046;-67
2022/06/20 10:22:08;;;;;;;11.63;4.60;;;31.60;9.80;;;;;;5069327;28;45782;-63
2022/06/20 10:25:03;;;;;;;8.10;3.83;;;31.20;9.80;;;;;;5069428;28;46786;-63
2022/06/20 10:27:47;;;;;;;9.13;4.33;;;30.60;10.20;;;;;;5071142;28;46437;-63
2022/06/20 10:30:44;;;;;;;13.60;4.90;;;30.10;10.40;;;;;;5066204;28;47312;-70
2022/06/20 10:33:09;;;;;;;22.97;4.30;;;29.80;11.80;;;;;;5071197;28;46394;-64
2022/06/20 10:36:06;;;;;;;12.73;4.43;;;29.90;12.10;;;;;;5071417;28;45881;-64
2022/06/20 10:38:39;;;;;;;13.30;4.43;;;29.70;12.50;;;;;;5067444;28;47397;-66
2022/06/20 10:41:25;;;;;;;21.33;4.40;;;29.90;12.50;;;;;;5064966;28;47195;-63
2022/06/20 10:44:14;;;;;;;9.63;3.93;;;29.90;12.90;;;;;;5071593;28;46551;-64
2022/06/20 10:47:06;;;;;;;12.57;4.27;;;30.00;13.00;;;;;;5069276;28;46480;-65
2022/06/20 10:49:35;;;;;;;12.70;4.13;;;30.30;13.10;;;;;;5065400;27;46353;-66
2022/06/20 10:52:07;;;;;;;9.57;4.03;;;30.40;12.70;;;;;;5069401;28;46356;-62
2022/06/20 10:55:01;;;;;;;12.00;4.10;;;30.50;12.70;;;;;;5074179;28;46302;-66
2022/06/20 10:57:56;;;;;;;14.60;4.30;;;30.20;12.10;;;;;;5072582;28;46607;-63
2022/06/20 11:00:26;;;;;;;12.37;3.93;;;30.10;12.70;;;;;;5069633;28;45927;-65
2022/06/20 11:03:19;;;;;;;9.43;4.03;;;30.40;12.50;;;;;;5066292;28;46490;-61
2022/06/20 11:06:03;;;;;;;14.40;4.67;;;30.60;12.60;;;;;;5070724;28;46417;-62
2022/06/20 11:08:44;;;;;;;7.30;3.70;;;30.70;11.60;;;;;;5070988;28;46347;-62
2022/06/20 11:11:22;;;;;;;14.47;4.40;;;30.50;10.70;;;;;;5069510;28;46474;-62
2022/06/20 11:14:01;;;;;;;11.03;4.03;;;30.60;11.40;;;;;;5068135;28;46428;-63
2022/06/20 11:16:32;;;;;;;8.03;4.20;;;30.70;10.60;;;;;;5068020;28;46469;-64
2022/06/20 11:19:03;;;;;;;8.40;3.37;;;30.70;10.10;;;;;;5069935;28;46430;-63
2022/06/20 11:21:47;;;;;;;13.33;4.13;;;30.90;10.00;;;;;;5069232;28;46419;-63
2022/06/20 11:24:27;;;;;;;13.57;4.00;;;31.10;10.10;;;;;;5069960;28;46391;-62
2022/06/20 11:27:32;;;;;;;7.80;4.03;;;31.20;10.30;;;;;;5066855;28;46423;-62
2022/06/20 11:30:12;;;;;;;17.63;5.07;;;31.30;10.30;;;;;;5067710;28;46394;-67
2022/06/20 11:33:11;;;;;;;17.07;5.00;;;31.70;10.00;;;;;;5066387;28;46480;-62
2022/06/20 11:36:01;;;;;;;11.53;4.83;;;32.00;10.10;;;;;;5065592;28;46532;-65
2022/06/20 11:38:32;;;;;;;9.60;3.90;;;32.00;10.10;;;;;;5067417;28;46367;-64
2022/06/20 11:41:02;;;;;;;13.43;5.20;;;32.00;9.90;;;;;;5071334;28;46390;-65
2022/06/20 11:43:42;;;;;;;11.70;4.77;;;31.80;10.00;;;;;;5069015;28;46534;-63
2022/06/20 11:46:27;;;;;;;8.50;4.50;;;31.80;10.30;;;;;;5063725;28;46417;-66
2022/06/20 11:48:58;;;;;;;13.77;5.13;;;31.80;10.60;;;;;;5063082;28;46422;-65
2022/06/20 11:51:39;;;;;;;12.93;4.67;;;32.00;10.20;;;;;;5069240;27;46715;-63
2022/06/20 11:54:28;;;;;;;7.00;4.47;;;32.20;9.60;;;;;;5064831;28;46389;-61
2022/06/20 11:57:14;;;;;;;11.20;4.20;;;32.30;9.80;;;;;;5069215;28;46433;-62
2022/06/20 11:59:56;;;;;;;16.60;4.67;;;32.00;9.70;;;;;;5067471;28;46532;-64
2022/06/20 12:02:46;;;;;;;8.23;4.23;;;31.70;10.40;;;;;;5068734;27;46437;-65
2022/06/20 12:05:17;;;;;;;10.20;5.00;;;31.30;11.00;;;;;;5065972;28;46924;-63
2022/06/20 12:07:47;;;;;;;8.73;4.47;;;31.10;11.70;;;;;;5071566;28;46384;-63
2022/06/20 12:10:38;;;;;;;11.07;4.43;;;31.20;11.30;;;;;;5069567;28;46675;-63
2022/06/20 12:13:25;;;;;;;15.47;4.50;;;31.00;11.70;;;;;;5070305;28;46393;-61
2022/06/20 12:16:16;;;;;;;11.00;4.60;;;31.20;11.50;;;;;;5073657;28;46665;-63
2022/06/20 12:24:21;;;;;;;13.90;4.67;;;31.50;10.70;;;;;;5071992;28;46452;-62
2022/06/20 12:26:46;;;;;;;6.77;4.23;;;31.40;11.00;;;;;;5070729;28;46420;-63
2022/06/20 12:29:20;;;;;;;12.00;5.17;;;31.10;10.40;;;;;;5069925;28;46421;-61
2022/06/20 12:31:49;;;;;;;11.83;4.30;;;31.00;11.30;;;;;;5069356;28;46269;-62
2022/06/20 12:34:53;;;;;;;11.73;4.20;;;31.10;10.60;;;;;;5071471;28;46719;-62
2022/06/20 12:37:27;;;;;;;19.77;4.30;;;30.90;11.70;;;;;;5074431;28;46790;-63
2022/06/20 12:40:01;;;;;;;9.93;4.37;;;30.80;11.40;;;;;;5070125;28;46466;-62
2022/06/20 12:42:38;;;;;;;12.50;4.33;;;30.70;11.50;;;;;;5076067;28;46978;-62
2022/06/20 12:45:32;;;;;;;8.43;4.10;;;30.60;11.80;;;;;;5072083;28;46615;-62
2022/06/20 12:48:00;;;;;;;10.80;4.50;;;30.50;11.70;;;;;;5071122;28;45843;-62
2022/06/20 12:50:55;;;;;;;15.13;4.20;;;30.70;11.40;;;;;;5068489;28;46338;-62
2022/06/20 12:53:36;;;;;;;13.90;4.73;;;30.80;11.90;;;;;;5062757;28;46429;-62
2022/06/20 12:56:18;;;;;;;11.93;4.40;;;30.90;11.50;;;;;;5071050;28;46479;-63
2022/06/20 12:59:27;;;;;;;10.90;4.13;;;31.00;11.80;;;;;;5071063;28;46534;-63
2022/06/20 13:02:18;;;;;;;7.50;4.50;;;31.00;11.70;;;;;;5069613;28;46467;-65
2022/06/20 13:05:10;;;;;;;13.60;4.40;;;31.00;11.20;;;;;;5070561;28;46279;-63
2022/06/20 13:07:44;;;;;;;18.67;4.30;;;31.00;11.30;;;;;;5071570;28;46434;-62
2022/06/20 13:10:33;;;;;;;16.00;4.77;;;31.10;11.30;;;;;;5070007;28;46564;-61
2022/06/20 13:13:41;;;;;;;11.97;4.63;;;31.10;11.40;;;;;;5068660;28;46734;-64
2022/06/20 13:16:34;;;;;;;15.17;5.17;;;31.00;11.20;;;;;;5069093;28;46703;-63
2022/06/20 13:19:09;;;;;;;13.33;4.10;;;31.20;11.20;;;;;;5063668;28;46368;-63
2022/06/20 13:21:46;;;;;;;8.70;4.33;;;31.20;11.00;;;;;;5069048;28;46283;-62
2022/06/20 13:24:17;;;;;;;20.40;4.10;;;31.00;11.00;;;;;;5070615;28;46423;-62
2022/06/20 13:26:48;;;;;;;14.03;4.20;;;31.00;10.90;;;;;;5068244;28;46417;-65
2022/06/20 13:29:47;;;;;;;7.20;4.30;;;31.00;11.00;;;;;;5070444;28;45794;-65
2022/06/20 13:32:22;;;;;;;11.83;4.10;;;31.00;10.90;;;;;;5068446;28;46359;-64
2022/06/20 13:35:15;;;;;;;11.53;4.43;;;31.10;10.90;;;;;;5070416;28;46773;-64
2022/06/20 13:38:03;;;;;;;9.30;4.67;;;31.50;10.90;;;;;;5067313;28;46866;-64
2022/06/20 13:40:42;;;;;;;20.20;4.53;;;31.50;10.20;;;;;;5069273;28;46465;-64